createdAt,value
2022-08-07T00:00:07.148Z,9.35
2022-08-07T00:02:44.099Z,6.57
2022-08-07T00:05:11.351Z,6.90
2022-08-07T00:07:40.724Z,6.05
2022-08-07T00:10:27.086Z,6.93
2022-08-07T00:12:57.692Z,6.65
2022-08-07T00:15:38.360Z,8.80
2022-08-07T00:18:24.161Z,6.15
2022-08-07T00:21:01.830Z,6.57
2022-08-07T00:23:30.990Z,5.82
2022-08-07T00:26:02.855Z,6.53
2022-08-07T00:28:45.653Z,8.43
2022-08-07T00:31:16.579Z,12.13
2022-08-07T00:33:47.765Z,6.60
2022-08-07T00:36:14.651Z,6.60
2022-08-07T00:38:43.736Z,7.70
2022-08-07T00:41:15.048Z,7.35
2022-08-07T00:43:59.326Z,9.95
2022-08-07T00:46:29.022Z,6.85
2022-08-07T00:48:55.897Z,7.60
2022-08-07T00:51:22.584Z,12.88
2022-08-07T00:53:56.037Z,7.10
2022-08-07T00:56:23.630Z,9.05
2022-08-07T00:58:57.452Z,6.97
2022-08-07T01:01:24.248Z,7.97
2022-08-07T01:03:55.485Z,6.72
2022-08-07T01:06:27.122Z,9.35
2022-08-07T01:08:56.236Z,7.35
2022-08-07T01:12:23.866Z,6.63
2022-08-07T01:14:10.077Z,6.90
2022-08-07T01:16:37.215Z,6.57
2022-08-07T01:19:05.103Z,7.85
2022-08-07T01:21:46.173Z,7.18
2022-08-07T01:24:14.132Z,7.25
2022-08-07T01:26:47.911Z,9.43
2022-08-07T01:29:18.444Z,8.73
2022-08-07T01:31:48.557Z,7.03
2022-08-07T01:34:17.912Z,8.38
2022-08-07T01:36:52.635Z,6.93
2022-08-07T01:39:40.992Z,6.45
2022-08-07T01:42:38.231Z,8.23
2022-08-07T01:45:15.833Z,7.22
2022-08-07T01:48:19.786Z,6.47
2022-08-07T01:50:32.611Z,7.25
2022-08-07T01:53:00.608Z,7.28
2022-08-07T01:55:29.639Z,9.27
2022-08-07T01:58:06.647Z,9.77
2022-08-07T02:00:51.289Z,7.25
2022-08-07T02:03:32.190Z,7.47
2022-08-07T02:06:31.986Z,7.93
2022-08-07T02:09:04.913Z,11.82
2022-08-07T02:12:03.563Z,7.53
2022-08-07T02:14:35.704Z,8.70
2022-08-07T02:17:06.067Z,6.88
2022-08-07T02:20:03.989Z,7.68
2022-08-07T02:22:25.926Z,7.75
2022-08-07T02:24:54.718Z,7.97
2022-08-07T02:27:22.850Z,7.18
2022-08-07T02:29:54.480Z,9.88
2022-08-07T02:32:29.849Z,7.65
2022-08-07T02:34:58.234Z,9.80
2022-08-07T02:37:28.282Z,13.63
2022-08-07T02:40:12.334Z,9.30
2022-08-07T02:42:51.092Z,12.13
2022-08-07T02:45:58.416Z,6.97
2022-08-07T02:48:15.666Z,7.60
2022-08-07T02:50:48.374Z,9.55
2022-08-07T02:53:38.469Z,7.47
2022-08-07T02:56:17.509Z,7.95
2022-08-07T02:58:49.731Z,6.82
2022-08-07T03:01:35.593Z,9.93
2022-08-07T03:04:08.401Z,12.55
2022-08-07T03:06:42.105Z,13.07
2022-08-07T03:09:13.810Z,14.23
2022-08-07T03:11:52.287Z,10.95
2022-08-07T03:14:28.977Z,11.70
2022-08-07T03:16:56.814Z,10.70
2022-08-07T03:19:24.218Z,10.32
2022-08-07T03:21:57.295Z,12.52
2022-08-07T03:24:27.500Z,12.10
2022-08-07T03:27:01.168Z,11.57
2022-08-07T03:29:38.380Z,10.82
2022-08-07T03:32:13.096Z,10.93
2022-08-07T03:34:47.267Z,10.30
2022-08-07T03:37:32.495Z,10.45
2022-08-07T03:40:15.997Z,11.30
2022-08-07T03:42:44.087Z,11.60
2022-08-07T03:45:12.739Z,14.45
2022-08-07T03:48:00.719Z,11.23
2022-08-07T03:50:28.518Z,12.88
2022-08-07T03:52:58.692Z,13.45
2022-08-07T03:55:52.963Z,13.07
2022-08-07T03:59:09.711Z,12.07
2022-08-07T04:01:01.072Z,12.82
2022-08-07T04:03:38.820Z,13.45
2022-08-07T04:06:37.158Z,10.10
2022-08-07T04:09:03.808Z,11.20
2022-08-07T04:12:26.250Z,11.48
2022-08-07T04:14:38.100Z,11.48
2022-08-07T04:17:05.279Z,11.68
2022-08-07T04:19:52.080Z,11.80
2022-08-07T04:22:22.995Z,12.93
2022-08-07T04:24:50.414Z,11.48
2022-08-07T04:27:25.163Z,13.38
2022-08-07T04:30:02.446Z,11.77
2022-08-07T04:32:45.016Z,11.65
2022-08-07T04:35:16.367Z,10.23
2022-08-07T04:38:02.765Z,11.20
2022-08-07T04:40:32.444Z,11.02
2022-08-07T04:43:01.633Z,9.93
2022-08-07T04:45:57.349Z,10.35
2022-08-07T04:48:44.521Z,10.23
2022-08-07T04:51:19.591Z,12.10
2022-08-07T04:54:06.507Z,10.50
2022-08-07T04:58:24.426Z,10.55
2022-08-07T05:00:11.270Z,11.25
2022-08-07T05:02:43.605Z,13.35
2022-08-07T05:05:53.255Z,13.63
2022-08-07T05:09:01.218Z,12.40
2022-08-07T05:11:57.603Z,12.45
2022-08-07T05:14:52.666Z,13.43
2022-08-07T05:17:12.023Z,12.85
2022-08-07T05:19:44.791Z,12.40
2022-08-07T05:22:26.529Z,14.68
2022-08-07T05:24:57.242Z,12.40
2022-08-07T05:28:16.515Z,12.68
2022-08-07T05:30:16.095Z,13.70
2022-08-07T05:32:58.557Z,13.13
2022-08-07T05:35:33.595Z,11.02
2022-08-07T05:38:10.741Z,11.00
2022-08-07T05:40:49.547Z,11.02
2022-08-07T05:43:18.719Z,10.85
2022-08-07T05:45:48.345Z,11.25
2022-08-07T05:48:19.557Z,10.10
2022-08-07T05:50:53.395Z,12.18
2022-08-07T05:54:13.382Z,10.63
2022-08-07T05:56:09.183Z,12.20
2022-08-07T05:58:52.588Z,10.48
2022-08-07T06:01:24.821Z,10.07
2022-08-07T06:03:58.521Z,10.43
2022-08-07T06:06:34.057Z,9.93
2022-08-07T06:09:05.113Z,10.50
2022-08-07T06:11:35.924Z,10.30
2022-08-07T06:14:11.921Z,11.25
2022-08-07T06:16:45.786Z,10.73
2022-08-07T06:19:52.108Z,10.88
2022-08-07T06:22:15.557Z,10.73
2022-08-07T06:24:57.997Z,10.18
2022-08-07T06:27:54.468Z,10.02
2022-08-07T06:30:24.151Z,13.52
2022-08-07T06:33:03.555Z,10.20
2022-08-07T06:35:39.308Z,10.70
2022-08-07T06:38:20.642Z,10.15
2022-08-07T06:40:51.266Z,12.05
2022-08-07T06:43:22.439Z,9.93
2022-08-07T06:46:02.813Z,9.93
2022-08-07T06:48:29.733Z,10.38
2022-08-07T06:50:59.067Z,11.35
2022-08-07T06:55:27.527Z,9.50
2022-08-07T06:56:49.760Z,9.52
2022-08-07T07:00:11.647Z,9.50
2022-08-07T07:02:48.758Z,9.40
2022-08-07T07:05:12.857Z,9.25
2022-08-07T07:07:59.472Z,10.38
2022-08-07T07:10:33.769Z,8.82
2022-08-07T07:13:04.104Z,8.57
2022-08-07T07:15:35.724Z,7.85
2022-08-07T07:18:02.846Z,10.60
2022-08-07T07:20:35.758Z,9.35
2022-08-07T07:24:09.335Z,8.35
2022-08-07T07:26:33.188Z,8.63
2022-08-07T07:29:56.107Z,8.70
2022-08-07T07:31:46.994Z,8.70
2022-08-07T07:34:16.882Z,8.05
2022-08-07T07:36:47.951Z,7.32
2022-08-07T07:39:21.125Z,7.05
2022-08-07T07:42:13.625Z,7.93
2022-08-07T07:44:39.771Z,8.77
2022-08-07T07:47:16.101Z,6.50
2022-08-07T07:50:33.161Z,8.70
2022-08-07T07:52:38.749Z,6.93
2022-08-07T07:55:07.773Z,8.38
2022-08-07T07:57:50.465Z,9.32
2022-08-07T08:00:31.588Z,6.72
2022-08-07T08:03:08.474Z,7.40
2022-08-07T08:05:54.022Z,8.68
2022-08-07T08:08:34.940Z,7.13
2022-08-07T08:11:08.641Z,9.13
2022-08-07T08:13:50.772Z,5.55
2022-08-07T08:16:24.931Z,5.90
2022-08-07T08:18:54.766Z,6.25
2022-08-07T08:22:00.629Z,7.40
2022-08-07T08:24:47.656Z,6.50
2022-08-07T08:27:26.543Z,5.72
2022-08-07T08:30:07.846Z,5.97
2022-08-07T08:32:42.081Z,5.63
2022-08-07T08:35:10.449Z,6.05
2022-08-07T08:38:01.543Z,13.07
2022-08-07T08:40:28.791Z,6.32
2022-08-07T08:43:03.402Z,8.63
2022-08-07T08:45:58.312Z,5.32
2022-08-07T08:48:36.178Z,5.22
2022-08-07T08:52:01.100Z,9.15
2022-08-07T08:54:33.279Z,5.72
2022-08-07T08:57:03.957Z,4.65
2022-08-07T08:59:42.104Z,4.95
2022-08-07T09:02:35.121Z,4.78
2022-08-07T09:05:04.052Z,8.48
2022-08-07T09:07:46.415Z,8.70
2022-08-07T09:10:27.364Z,4.82
2022-08-07T09:13:03.806Z,5.70
2022-08-07T09:16:23.931Z,5.00
2022-08-07T09:18:58.267Z,5.03
2022-08-07T09:21:33.915Z,6.70
2022-08-07T09:24:59.653Z,5.03
2022-08-07T09:27:22.298Z,5.03
2022-08-07T09:30:04.786Z,6.22
2022-08-07T09:32:53.121Z,5.45
2022-08-07T09:36:04.742Z,5.47
2022-08-07T09:38:30.001Z,5.32
2022-08-07T09:41:05.155Z,5.20
2022-08-07T09:44:03.463Z,3.83
2022-08-07T09:47:55.116Z,4.95
2022-08-07T09:50:00.405Z,4.57
2022-08-07T09:52:38.021Z,4.72
2022-08-07T09:55:17.371Z,4.03
2022-08-07T09:58:19.970Z,3.38
2022-08-07T10:01:02.131Z,7.20
2022-08-07T10:04:05.879Z,6.20
2022-08-07T10:06:41.619Z,5.63
2022-08-07T10:09:15.890Z,3.22
2022-08-07T10:12:00.627Z,3.33
2022-08-07T10:14:35.461Z,4.05
2022-08-07T10:17:17.194Z,5.43
2022-08-07T10:19:49.128Z,2.55
2022-08-07T10:22:33.864Z,3.50
2022-08-07T10:25:22.809Z,3.03
2022-08-07T10:28:13.142Z,5.63
2022-08-07T10:30:58.318Z,3.75
2022-08-07T10:34:05.625Z,3.70
2022-08-07T10:36:29.948Z,2.25
2022-08-07T10:39:14.593Z,3.15
2022-08-07T10:41:53.858Z,4.38
2022-08-07T10:44:37.596Z,4.70
2022-08-07T10:47:26.959Z,3.03
2022-08-07T10:50:15.174Z,2.45
2022-08-07T10:53:08.094Z,3.33
2022-08-07T10:55:53.299Z,2.80
2022-08-07T10:58:33.037Z,2.17
2022-08-07T11:01:03.138Z,3.40
2022-08-07T11:04:16.495Z,4.00
2022-08-07T11:06:50.497Z,4.03
2022-08-07T11:10:07.136Z,3.63
2022-08-07T11:12:19.018Z,2.78
2022-08-07T11:15:02.729Z,2.75
2022-08-07T11:17:48.260Z,5.40
2022-08-07T11:20:19.578Z,3.00
2022-08-07T11:23:02.849Z,4.68
2022-08-07T11:25:29.553Z,2.08
2022-08-07T11:28:17.690Z,3.90
2022-08-07T11:31:02.293Z,2.72
2022-08-07T11:33:53.860Z,3.25
2022-08-07T11:36:30.783Z,4.13
2022-08-07T11:38:57.972Z,2.45
2022-08-07T11:42:01.795Z,1.77
2022-08-07T11:44:37.841Z,2.20
2022-08-07T11:47:13.699Z,1.73
2022-08-07T11:50:18.838Z,2.63
2022-08-07T11:52:45.692Z,2.05
2022-08-07T11:56:14.009Z,1.67
2022-08-07T11:58:21.592Z,2.85
2022-08-07T12:01:20.435Z,2.63
2022-08-07T12:04:01.454Z,1.52
2022-08-07T12:06:39.531Z,4.13
2022-08-07T12:09:16.429Z,3.47
2022-08-07T12:12:09.232Z,2.63
2022-08-07T12:15:01.394Z,1.98
2022-08-07T12:17:33.944Z,2.42
2022-08-07T12:20:12.898Z,1.73
2022-08-07T12:23:09.188Z,4.00
2022-08-07T12:26:03.053Z,1.63
2022-08-07T12:28:57.605Z,1.85
2022-08-07T12:32:02.436Z,2.67
2022-08-07T12:34:27.969Z,1.92
2022-08-07T12:36:56.466Z,2.42
2022-08-07T12:39:42.067Z,2.40
2022-08-07T12:42:12.174Z,1.90
2022-08-07T12:44:43.041Z,2.25
2022-08-07T12:47:30.897Z,3.00
2022-08-07T12:50:38.899Z,1.38
2022-08-07T12:53:18.041Z,1.30
2022-08-07T12:56:09.361Z,1.70
2022-08-07T12:58:39.519Z,2.50
2022-08-07T13:01:32.979Z,3.15
2022-08-07T13:04:31.655Z,3.67
2022-08-07T13:08:13.841Z,1.35
2022-08-07T13:10:29.175Z,1.92
2022-08-07T13:13:47.254Z,1.65
2022-08-07T13:16:10.721Z,2.13
2022-08-07T13:18:50.562Z,1.85
2022-08-07T13:21:37.355Z,2.00
2022-08-07T13:24:15.549Z,1.70
2022-08-07T13:27:05.447Z,2.28
2022-08-07T13:29:47.821Z,2.30
2022-08-07T13:32:32.493Z,3.85
2022-08-07T13:35:08.859Z,4.50
2022-08-07T13:37:36.333Z,2.88
2022-08-07T13:40:35.388Z,3.40
2022-08-07T13:43:04.643Z,2.72
2022-08-07T13:46:11.455Z,2.58
2022-08-07T13:48:20.940Z,4.47
2022-08-07T13:51:20.465Z,1.80
2022-08-07T13:54:00.200Z,3.17
2022-08-07T13:56:35.926Z,1.35
2022-08-07T13:59:30.643Z,2.83
2022-08-07T14:02:07.677Z,3.47
2022-08-07T14:04:47.479Z,1.77
2022-08-07T14:07:18.315Z,2.47
2022-08-07T14:10:02.191Z,2.45
2022-08-07T14:12:42.006Z,1.92
2022-08-07T14:15:25.153Z,1.85
2022-08-07T14:18:28.057Z,2.33
2022-08-07T14:20:48.712Z,2.42
2022-08-07T14:23:58.653Z,1.88
2022-08-07T14:26:28.390Z,2.42
2022-08-07T14:29:04.383Z,3.17
2022-08-07T14:31:42.985Z,1.40
2022-08-07T14:34:29.249Z,3.13
2022-08-07T14:36:57.068Z,2.72
2022-08-07T14:40:15.466Z,2.80
2022-08-07T14:42:19.779Z,5.25
2022-08-07T14:44:51.824Z,2.38
2022-08-07T14:47:19.407Z,2.75
2022-08-07T14:49:57.265Z,2.50
2022-08-07T14:58:02.012Z,3.55
2022-08-07T15:00:32.083Z,2.75
2022-08-07T15:03:00.171Z,4.18
2022-08-07T15:05:55.225Z,2.95
2022-08-07T15:08:32.429Z,1.52
2022-08-07T15:14:01.537Z,1.70
2022-08-07T15:16:55.050Z,3.20
2022-08-07T15:22:23.191Z,2.33
2022-08-07T15:25:13.161Z,2.63
2022-08-07T15:28:32.317Z,2.97
2022-08-07T15:30:36.377Z,1.52
2022-08-07T15:36:11.771Z,2.00
2022-08-07T15:38:58.852Z,1.75
2022-08-07T15:44:18.096Z,1.40
2022-08-07T15:46:52.775Z,2.05
2022-08-07T15:49:25.519Z,4.68
2022-08-07T15:52:13.905Z,2.28
2022-08-07T15:54:43.083Z,2.38
2022-08-07T15:57:27.756Z,1.77
2022-08-07T16:00:04.422Z,2.28
2022-08-07T16:02:39.798Z,1.50
2022-08-07T16:05:15.687Z,3.20
2022-08-07T16:08:30.696Z,2.13
2022-08-07T16:10:33.385Z,2.72
2022-08-07T16:13:57.617Z,2.55
2022-08-07T16:16:47.584Z,2.22
2022-08-07T16:19:09.536Z,4.15
2022-08-07T16:22:03.226Z,1.92
2022-08-07T16:24:33.733Z,1.50
2022-08-07T16:27:18.438Z,2.15
2022-08-07T16:30:30.080Z,2.35
2022-08-07T16:32:54.967Z,5.57
2022-08-07T16:35:52.068Z,2.63
2022-08-07T16:39:00.106Z,1.73
2022-08-07T16:41:41.271Z,2.05
2022-08-07T16:44:47.547Z,2.60
2022-08-07T16:47:52.898Z,2.42
2022-08-07T16:50:41.890Z,1.65
2022-08-07T16:54:02.945Z,1.98
2022-08-07T16:56:20.889Z,2.92
2022-08-07T16:59:10.524Z,3.35
2022-08-07T17:01:41.157Z,3.67
2022-08-07T17:04:24.363Z,3.05
2022-08-07T17:07:03.344Z,2.00
2022-08-07T17:10:06.314Z,1.63
2022-08-07T17:12:44.064Z,2.10
2022-08-07T17:15:15.676Z,2.40
2022-08-07T17:17:47.041Z,2.08
2022-08-07T17:20:37.868Z,1.60
2022-08-07T17:23:16.684Z,3.67
2022-08-07T17:25:58.871Z,1.58
2022-08-07T17:28:35.287Z,3.83
2022-08-07T17:31:16.400Z,1.88
2022-08-07T17:34:32.528Z,1.35
2022-08-07T17:36:58.402Z,3.05
2022-08-07T17:39:57.689Z,3.70
2022-08-07T17:42:58.690Z,1.60
2022-08-07T17:45:54.233Z,3.88
2022-08-07T17:48:31.827Z,3.53
2022-08-07T17:51:07.790Z,3.17
2022-08-07T17:54:00.751Z,2.03
2022-08-07T17:56:49.957Z,1.60
2022-08-07T17:59:35.383Z,2.35
2022-08-07T18:02:14.659Z,2.85
2022-08-07T18:05:20.723Z,5.43
2022-08-07T18:08:23.898Z,2.20
2022-08-07T18:12:07.419Z,1.92
2022-08-07T18:14:02.524Z,1.70
2022-08-07T18:16:33.078Z,4.35
2022-08-07T18:21:04.625Z,1.40
2022-08-07T18:22:05.353Z,2.65
2022-08-07T18:24:42.337Z,1.88
2022-08-07T18:27:24.320Z,2.45
2022-08-07T18:30:04.239Z,2.33
2022-08-07T18:33:10.781Z,2.05
2022-08-07T18:35:51.832Z,2.63
2022-08-07T18:38:59.263Z,2.90
2022-08-07T18:41:46.401Z,1.90
2022-08-07T18:44:19.181Z,1.38
2022-08-07T18:47:04.551Z,2.15
2022-08-07T18:50:19.374Z,1.98
2022-08-07T18:52:54.145Z,2.17
2022-08-07T18:55:55.560Z,5.10
2022-08-07T18:58:36.166Z,2.38
2022-08-07T19:02:19.189Z,2.60
2022-08-07T19:04:09.596Z,5.50
2022-08-07T19:06:51.565Z,1.88
2022-08-07T19:09:55.452Z,2.92
2022-08-07T19:12:20.836Z,1.90
2022-08-07T19:16:02.416Z,3.95
2022-08-07T19:18:12.537Z,2.67
2022-08-07T19:21:09.288Z,1.90
2022-08-07T19:23:58.422Z,2.72
2022-08-07T19:28:28.591Z,2.30
2022-08-07T19:31:00.766Z,2.75
2022-08-07T19:32:27.170Z,3.50
2022-08-07T19:35:03.262Z,2.28
2022-08-07T19:37:55.672Z,1.73
2022-08-07T19:40:31.491Z,5.60
2022-08-07T19:43:02.285Z,4.05
2022-08-07T19:46:07.902Z,2.03
2022-08-07T19:48:24.427Z,7.07
2022-08-07T19:50:53.065Z,2.40
2022-08-07T19:54:44.392Z,4.43
2022-08-07T19:56:15.107Z,2.67
2022-08-07T19:58:56.976Z,3.60
2022-08-07T20:01:52.943Z,3.85
2022-08-07T20:04:12.486Z,3.55
2022-08-07T20:06:58.336Z,1.60
2022-08-07T20:10:35.891Z,4.20
2022-08-07T20:12:32.208Z,5.10
2022-08-07T20:15:03.731Z,4.15
2022-08-07T20:17:31.749Z,2.63
2022-08-07T20:20:04.653Z,4.03
2022-08-07T20:22:36.003Z,2.08
2022-08-07T20:25:12.570Z,6.22
2022-08-07T20:27:54.036Z,2.50
2022-08-07T20:30:27.931Z,3.17
2022-08-07T20:32:55.321Z,3.15
2022-08-07T20:35:26.428Z,1.77
2022-08-07T20:37:58.490Z,3.70
2022-08-07T20:40:33.250Z,2.40
2022-08-07T20:43:02.280Z,3.22
2022-08-07T20:46:24.324Z,4.13
2022-08-07T20:48:25.925Z,5.55
2022-08-07T20:50:57.547Z,2.15
2022-08-07T20:53:25.905Z,3.00
2022-08-07T20:56:12.003Z,2.00
2022-08-07T20:58:40.759Z,3.30
2022-08-07T21:01:19.408Z,2.00
2022-08-07T21:04:18.789Z,4.18
2022-08-07T21:06:36.686Z,2.72
2022-08-07T21:09:14.376Z,3.50
2022-08-07T21:11:46.334Z,3.72
2022-08-07T21:14:33.341Z,9.38
2022-08-07T21:18:00.766Z,3.50
2022-08-07T21:19:51.798Z,3.08
2022-08-07T21:22:34.269Z,2.20
2022-08-07T21:25:19.341Z,3.80
2022-08-07T21:28:01.838Z,3.05
2022-08-07T21:30:37.402Z,4.03
2022-08-07T21:33:16.938Z,2.88
2022-08-07T21:36:06.528Z,3.17
2022-08-07T21:38:49.972Z,7.63
2022-08-07T21:41:38.131Z,2.90
2022-08-07T21:44:28.252Z,5.30
2022-08-07T21:46:59.840Z,3.05
2022-08-07T21:50:02.531Z,2.80
2022-08-07T21:52:35.064Z,4.13
2022-08-07T21:55:29.792Z,2.63
2022-08-07T21:58:03.180Z,3.67
2022-08-07T22:00:31.113Z,2.42
2022-08-07T22:03:07.318Z,2.35
2022-08-07T22:05:57.236Z,4.10
2022-08-07T22:08:28.327Z,2.45
2022-08-07T22:10:59.596Z,4.05
2022-08-07T22:13:51.782Z,3.10
2022-08-07T22:16:44.258Z,2.28
2022-08-07T22:19:20.076Z,2.03
2022-08-07T22:22:21.037Z,3.97
2022-08-07T22:25:11.273Z,7.35
2022-08-07T22:28:07.489Z,3.83
2022-08-07T22:31:31.334Z,3.53
2022-08-07T22:34:05.227Z,3.05
2022-08-07T22:36:46.476Z,3.38
2022-08-07T22:39:51.666Z,4.43
2022-08-07T22:42:53.851Z,3.75
2022-08-07T22:45:10.960Z,2.97
2022-08-07T22:48:31.749Z,3.72
2022-08-07T22:50:55.074Z,3.38
2022-08-07T22:54:07.080Z,3.67
2022-08-07T22:56:28.907Z,11.88
2022-08-07T22:58:56.177Z,2.30
2022-08-07T23:01:23.429Z,5.57
2022-08-07T23:03:58.862Z,3.42
2022-08-07T23:06:51.699Z,2.25
2022-08-07T23:10:05.951Z,5.68
2022-08-07T23:12:34.755Z,6.63
2022-08-07T23:15:07.593Z,4.85
2022-08-07T23:17:45.153Z,2.67
2022-08-07T23:20:51.420Z,2.78
2022-08-07T23:24:05.638Z,2.00
2022-08-07T23:26:26.139Z,2.45
2022-08-07T23:29:17.126Z,3.22
2022-08-07T23:34:19.670Z,17.05
2022-08-07T23:35:06.652Z,2.15
2022-08-07T23:38:00.942Z,2.10
2022-08-07T23:40:28.499Z,2.22
2022-08-07T23:42:58.201Z,4.05
2022-08-07T23:46:02.452Z,2.80
2022-08-07T23:48:29.258Z,3.67
2022-08-07T23:51:03.345Z,7.38
2022-08-07T23:53:56.162Z,4.30
2022-08-07T23:56:27.267Z,3.55
2022-08-07T23:58:57.769Z,2.42
